Time;durP1;ratioP1;P1;durP2;ratioP2;P2;SDS_P1;SDS_P2;PMS_P1;PMS_P2;Temp;Humidity;BMP_temperature;BMP_pressure;BME280_temperature;BME280_humidity;BME280_pressure;Samples;Min_cycle;Max_cycle;Signal;HPM_P1;HPM_P2
2022/07/04 00:00:45;;;;;;;;;;;14.20;99.90;;;;;;4963295;28;19917;-73
2022/07/04 00:03:10;;;;;;;;;;;14.10;99.90;;;;;;4973514;28;19970;-73
2022/07/04 00:05:36;;;;;;;;;;;14.10;99.90;;;;;;4971595;28;19942;-73
2022/07/04 00:08:02;;;;;;;;;;;14.10;99.90;;;;;;4975127;28;19930;-73
2022/07/04 00:10:27;;;;;;;;;;;14.10;99.90;;;;;;4966767;28;20467;-73
2022/07/04 00:12:53;;;;;;;;;;;14.10;99.90;;;;;;4970383;28;19918;-73
2022/07/04 00:15:19;;;;;;;;;;;14.10;99.90;;;;;;4972837;28;19918;-73
2022/07/04 00:17:44;;;;;;;;;;;14.00;99.90;;;;;;4972198;28;19925;-73
2022/07/04 00:20:10;;;;;;;;;;;13.90;99.90;;;;;;4967355;28;19925;-73
2022/07/04 00:22:36;;;;;;;;;;;13.80;99.90;;;;;;4970482;28;19930;-73
2022/07/04 00:25:02;;;;;;;;;;;13.90;99.90;;;;;;4973443;28;20032;-73
2022/07/04 00:27:28;;;;;;;;;;;13.90;99.90;;;;;;4975286;28;20017;-73
2022/07/04 00:29:53;;;;;;;;;;;13.80;99.90;;;;;;4964564;28;20005;-73
2022/07/04 00:32:19;;;;;;;;;;;13.80;99.90;;;;;;4968620;28;19919;-73
2022/07/04 00:34:45;;;;;;;;;;;13.80;99.90;;;;;;4971943;28;20016;-73
2022/07/04 00:37:10;;;;;;;;;;;13.70;99.90;;;;;;4969278;28;19925;-73
2022/07/04 00:39:36;;;;;;;;;;;13.70;99.90;;;;;;4967053;28;19926;-73
2022/07/04 00:42:02;;;;;;;;;;;13.70;99.90;;;;;;4966904;28;19925;-73
2022/07/04 00:44:28;;;;;;;;;;;13.70;99.90;;;;;;4968105;28;19922;-73
2022/07/04 00:46:53;;;;;;;;;;;13.70;99.90;;;;;;4971822;28;19925;-73
2022/07/04 00:49:19;;;;;;;;;;;13.70;99.90;;;;;;4972478;28;19987;-73
2022/07/04 00:51:46;;;;;;;;;;;13.60;99.90;;;;;;4967895;28;19918;-73
2022/07/04 00:54:12;;;;;;;;;;;13.60;99.90;;;;;;4970523;28;19972;-74
2022/07/04 00:56:39;;;;;;;;;;;13.60;99.90;;;;;;4962901;28;20398;-74
2022/07/04 00:59:05;;;;;;;;;;;13.60;99.90;;;;;;4966305;28;20456;-73
2022/07/04 01:01:31;;;;;;;;;;;13.60;99.90;;;;;;4952394;28;20393;-73
2022/07/04 01:03:57;;;;;;;;;;;13.60;99.90;;;;;;4967847;28;19933;-73
2022/07/04 01:06:23;;;;;;;;;;;13.60;99.90;;;;;;4967568;28;19922;-73
2022/07/04 01:08:48;;;;;;;;;;;13.60;99.90;;;;;;4965196;28;19918;-73
2022/07/04 01:11:14;;;;;;;;;;;13.50;99.90;;;;;;4957143;28;20001;-73
2022/07/04 01:13:41;;;;;;;;;;;13.50;99.90;;;;;;4965205;28;20355;-73
2022/07/04 01:16:07;;;;;;;;;;;13.50;99.90;;;;;;4964833;28;20337;-73
2022/07/04 01:18:33;;;;;;;;;;;13.50;99.90;;;;;;4960983;28;20311;-73
2022/07/04 01:20:58;;;;;;;;;;;13.50;99.90;;;;;;4965986;28;19918;-73
2022/07/04 01:23:24;;;;;;;;;;;13.50;99.90;;;;;;4963825;28;19921;-73
2022/07/04 01:25:50;;;;;;;;;;;13.50;99.90;;;;;;4972429;28;19945;-73
2022/07/04 01:28:17;;;;;;;;;;;13.50;99.90;;;;;;4967200;28;19931;-73
2022/07/04 01:30:43;;;;;;;;;;;13.50;99.90;;;;;;4962663;28;19922;-73
2022/07/04 01:33:09;;;;;;;;;;;13.40;99.90;;;;;;4959213;28;20388;-73
2022/07/04 01:35:35;;;;;;;;;;;13.40;99.90;;;;;;4966451;28;19922;-74
2022/07/04 01:38:00;;;;;;;;;;;13.30;99.90;;;;;;4968411;28;20399;-73
2022/07/04 01:40:26;;;;;;;;;;;13.40;99.90;;;;;;4966381;28;19925;-74
2022/07/04 01:42:52;;;;;;;;;;;13.30;99.90;;;;;;4973357;28;19949;-74
2022/07/04 01:45:17;;;;;;;;;;;13.30;99.90;;;;;;4966952;28;20390;-73
2022/07/04 01:47:43;;;;;;;;;;;13.30;99.90;;;;;;4969670;28;19918;-73
2022/07/04 01:50:12;;;;;;;;;;;13.30;99.90;;;;;;4966651;28;19965;-73
2022/07/04 01:52:38;;;;;;;;;;;13.20;99.90;;;;;;4952125;28;19931;-73
2022/07/04 01:55:03;;;;;;;;;;;13.20;99.90;;;;;;4970937;28;19922;-73
2022/07/04 01:57:29;;;;;;;;;;;13.20;99.90;;;;;;4968189;28;19926;-73
2022/07/04 02:02:39;;;;;;;;;;;13.20;99.90;;;;;;4987476;28;19930;-73
2022/07/04 02:05:05;;;;;;;;;;;13.20;99.90;;;;;;4973066;28;19947;-73
2022/07/04 02:07:30;;;;;;;;;;;13.20;99.90;;;;;;4967260;28;19918;-73
2022/07/04 02:09:56;;;;;;;;;;;13.20;99.90;;;;;;4972609;28;20392;-72
2022/07/04 02:15:06;;;;;;;;;;;13.20;99.90;;;;;;4969913;28;19918;-73
2022/07/04 02:17:32;;;;;;;;;;;13.20;99.90;;;;;;4970293;28;19918;-73
2022/07/04 02:19:57;;;;;;;;;;;13.20;99.90;;;;;;4954121;28;20376;-73
2022/07/04 02:22:23;;;;;;;;;;;13.10;99.90;;;;;;4972679;28;19972;-73
2022/07/04 02:24:48;;;;;;;;;;;13.10;99.90;;;;;;4956221;28;20415;-73
2022/07/04 02:27:14;;;;;;;;;;;13.10;99.90;;;;;;4973736;28;19918;-73
2022/07/04 02:29:40;;;;;;;;;;;13.10;99.90;;;;;;4968660;28;20432;-73
2022/07/04 02:32:05;;;;;;;;;;;13.10;99.90;;;;;;4969350;28;19922;-73
2022/07/04 02:34:34;;;;;;;;;;;13.10;99.90;;;;;;4972929;28;19918;-73
2022/07/04 02:36:59;;;;;;;;;;;13.10;99.90;;;;;;4971342;28;20300;-73
2022/07/04 02:39:25;;;;;;;;;;;13.00;99.90;;;;;;4972643;28;19918;-74
2022/07/04 02:41:51;;;;;;;;;;;13.00;99.90;;;;;;4969239;28;20840;-73
2022/07/04 02:44:16;;;;;;;;;;;13.00;99.90;;;;;;4974571;28;19929;-73
2022/07/04 02:46:42;;;;;;;;;;;13.00;99.90;;;;;;4970059;28;20293;-73
2022/07/04 02:49:07;;;;;;;;;;;13.00;99.90;;;;;;4967727;28;19918;-73
2022/07/04 02:51:33;;;;;;;;;;;13.00;99.90;;;;;;4968229;28;21587;-73
2022/07/04 02:53:58;;;;;;;;;;;12.90;99.90;;;;;;4970511;28;20339;-73
2022/07/04 02:56:24;;;;;;;;;;;13.00;99.90;;;;;;4971492;28;20404;-73
2022/07/04 02:58:50;;;;;;;;;;;12.90;99.90;;;;;;4972744;28;20004;-73
2022/07/04 03:01:15;;;;;;;;;;;12.90;99.90;;;;;;4967998;28;20316;-73
2022/07/04 03:03:41;;;;;;;;;;;12.90;99.90;;;;;;4968973;28;20289;-73
2022/07/04 03:06:07;;;;;;;;;;;13.00;99.90;;;;;;4965312;28;20281;-73
2022/07/04 03:08:33;;;;;;;;;;;12.90;99.90;;;;;;4962091;28;19981;-73
2022/07/04 03:10:59;;;;;;;;;;;12.90;99.90;;;;;;4971047;28;19917;-73
2022/07/04 03:13:24;;;;;;;;;;;13.00;99.90;;;;;;4972237;28;20325;-73
2022/07/04 03:15:51;;;;;;;;;;;13.00;99.90;;;;;;4973014;28;20300;-73
2022/07/04 03:18:16;;;;;;;;;;;13.00;99.90;;;;;;4964520;28;19929;-73
2022/07/04 03:20:42;;;;;;;;;;;13.00;99.90;;;;;;4973254;28;20336;-73
2022/07/04 03:23:08;;;;;;;;;;;13.00;99.90;;;;;;4972787;28;20312;-73
2022/07/04 03:25:34;;;;;;;;;;;12.90;99.90;;;;;;4955303;28;20134;-73
2022/07/04 03:28:00;;;;;;;;;;;12.90;99.90;;;;;;4969427;28;19922;-73
2022/07/04 03:30:26;;;;;;;;;;;12.90;99.90;;;;;;4972942;28;19918;-73
2022/07/04 03:32:51;;;;;;;;;;;12.90;99.90;;;;;;4968135;28;21792;-73
2022/07/04 03:35:17;;;;;;;;;;;12.90;99.90;;;;;;4975584;28;20029;-73
2022/07/04 03:37:42;;;;;;;;;;;12.90;99.90;;;;;;4962702;28;20420;-73
2022/07/04 03:40:08;;;;;;;;;;;12.90;99.90;;;;;;4972423;28;19918;-73
2022/07/04 03:42:34;;;;;;;;;;;12.90;99.90;;;;;;4967743;28;20297;-73
2022/07/04 03:44:59;;;;;;;;;;;12.90;99.90;;;;;;4972301;28;19922;-73
2022/07/04 03:47:25;;;;;;;;;;;12.90;99.90;;;;;;4967581;28;20009;-72
2022/07/04 03:49:50;;;;;;;;;;;12.90;99.90;;;;;;4969419;28;19949;-73
2022/07/04 03:52:16;;;;;;;;;;;12.90;99.90;;;;;;4969496;28;19926;-73
2022/07/04 03:54:42;;;;;;;;;;;12.90;99.90;;;;;;4972357;28;19918;-73
2022/07/04 03:57:07;;;;;;;;;;;12.90;99.90;;;;;;4968178;28;19936;-73
2022/07/04 03:59:33;;;;;;;;;;;12.90;99.90;;;;;;4967798;28;19926;-73
2022/07/04 04:01:58;;;;;;;;;;;12.90;99.90;;;;;;4969673;28;20016;-73
2022/07/04 04:07:08;;;;;;;;;;;12.90;99.90;;;;;;4964128;28;19937;-74
2022/07/04 04:09:34;;;;;;;;;;;12.90;99.90;;;;;;4978335;28;20284;-74
2022/07/04 04:11:59;;;;;;;;;;;12.90;99.90;;;;;;4970997;28;19960;-74
2022/07/04 04:14:27;;;;;;;;;;;12.90;99.90;;;;;;4970003;28;20324;-74
2022/07/04 04:16:53;;;;;;;;;;;13.00;99.90;;;;;;4969972;28;19924;-73
2022/07/04 04:19:18;;;;;;;;;;;13.00;99.90;;;;;;4971791;28;20412;-73
2022/07/04 04:21:44;;;;;;;;;;;13.00;99.90;;;;;;4978483;28;20285;-73
2022/07/04 04:24:09;;;;;;;;;;;13.10;99.90;;;;;;4964975;28;19968;-73
2022/07/04 04:26:35;;;;;;;;;;;13.10;99.90;;;;;;4974724;28;20384;-73
2022/07/04 04:29:00;;;;;;;;;;;13.20;99.90;;;;;;4970011;28;19921;-73
2022/07/04 04:31:26;;;;;;;;;;;13.20;99.90;;;;;;4962607;28;19958;-73
2022/07/04 04:33:51;;;;;;;;;;;13.20;99.90;;;;;;4964344;28;20368;-73
2022/07/04 04:36:17;;;;;;;;;;;13.20;99.90;;;;;;4967893;28;20557;-73
2022/07/04 04:38:43;;;;;;;;;;;13.30;99.90;;;;;;4968827;28;19940;-73
2022/07/04 04:41:08;;;;;;;;;;;13.30;99.90;;;;;;4964701;28;20381;-73
2022/07/04 04:43:34;;;;;;;;;;;13.30;99.90;;;;;;4968459;28;19925;-73
2022/07/04 04:46:00;;;;;;;;;;;13.40;99.90;;;;;;4967419;28;20384;-73
2022/07/04 04:48:25;;;;;;;;;;;13.40;99.90;;;;;;4970549;28;20396;-73
2022/07/04 04:50:51;;;;;;;;;;;13.40;99.90;;;;;;4975866;28;19967;-73
2022/07/04 04:53:17;;;;;;;;;;;13.50;99.90;;;;;;4976072;28;19918;-73
2022/07/04 04:55:42;;;;;;;;;;;13.50;99.90;;;;;;4970174;28;19918;-73
2022/07/04 04:58:08;;;;;;;;;;;13.60;99.90;;;;;;4968722;28;19918;-73
2022/07/04 05:00:33;;;;;;;;;;;13.70;99.90;;;;;;4972508;28;20463;-73
2022/07/04 05:02:59;;;;;;;;;;;13.70;99.90;;;;;;4976126;28;20411;-73
2022/07/04 05:05:24;;;;;;;;;;;13.70;99.90;;;;;;4972559;28;19961;-73
2022/07/04 05:07:50;;;;;;;;;;;13.80;99.90;;;;;;4967736;28;20408;-74
2022/07/04 05:10:16;;;;;;;;;;;13.80;99.90;;;;;;4970824;28;19925;-73
2022/07/04 05:12:42;;;;;;;;;;;13.90;99.90;;;;;;4981380;28;19929;-73
2022/07/04 05:15:08;;;;;;;;;;;13.90;99.90;;;;;;4963784;28;19918;-73
2022/07/04 05:17:33;;;;;;;;;;;14.00;99.90;;;;;;4970104;28;19922;-73
2022/07/04 05:19:59;;;;;;;;;;;14.00;99.90;;;;;;4966986;28;19918;-73
2022/07/04 05:22:25;;;;;;;;;;;14.10;99.90;;;;;;4973278;28;20004;-73
2022/07/04 05:24:50;;;;;;;;;;;14.20;99.90;;;;;;4955488;28;20435;-73
2022/07/04 05:27:16;;;;;;;;;;;14.30;99.90;;;;;;4964760;28;20594;-73
2022/07/04 05:29:41;;;;;;;;;;;14.40;99.90;;;;;;4970750;28;20391;-73
2022/07/04 05:32:07;;;;;;;;;;;14.40;99.90;;;;;;4971867;28;19930;-73
2022/07/04 05:34:33;;;;;;;;;;;14.40;99.90;;;;;;4964679;28;20442;-73
2022/07/04 05:36:58;;;;;;;;;;;14.50;99.90;;;;;;4970700;28;19925;-73
2022/07/04 05:39:24;;;;;;;;;;;14.50;99.90;;;;;;4968979;28;19918;-73
2022/07/04 05:41:49;;;;;;;;;;;14.60;99.90;;;;;;4974402;28;20364;-73
2022/07/04 05:44:15;;;;;;;;;;;14.60;99.90;;;;;;4970484;28;20384;-73
2022/07/04 05:46:40;;;;;;;;;;;14.70;99.90;;;;;;4970646;28;19973;-73
2022/07/04 05:49:06;;;;;;;;;;;14.80;99.90;;;;;;4969990;28;19968;-73
2022/07/04 05:51:31;;;;;;;;;;;14.90;99.90;;;;;;4970537;28;19918;-73
2022/07/04 05:53:57;;;;;;;;;;;14.90;99.90;;;;;;4972366;28;20380;-74
2022/07/04 05:56:23;;;;;;;;;;;15.00;99.90;;;;;;4953944;28;19945;-73
2022/07/04 05:58:49;;;;;;;;;;;15.10;99.90;;;;;;4968904;28;20347;-73
2022/07/04 06:01:14;;;;;;;;;;;15.10;99.90;;;;;;4964893;28;19925;-74
2022/07/04 06:03:40;;;;;;;;;;;15.20;99.90;;;;;;4975193;28;19926;-73
2022/07/04 06:06:06;;;;;;;;;;;15.30;99.90;;;;;;4965019;28;19917;-73
2022/07/04 06:08:32;;;;;;;;;;;15.40;99.90;;;;;;4968804;28;19918;-73
2022/07/04 06:10:58;;;;;;;;;;;15.40;99.90;;;;;;4965694;28;19922;-73
2022/07/04 06:13:24;;;;;;;;;;;15.50;99.90;;;;;;4964747;28;19924;-73
2022/07/04 06:15:49;;;;;;;;;;;15.60;99.90;;;;;;4964754;28;20404;-73
2022/07/04 06:18:15;;;;;;;;;;;15.70;99.90;;;;;;4969169;28;19925;-74
2022/07/04 06:20:40;;;;;;;;;;;15.80;99.90;;;;;;4973515;28;19929;-73
2022/07/04 06:23:06;;;;;;;;;;;15.90;99.90;;;;;;4965732;28;19978;-73
2022/07/04 06:25:32;;;;;;;;;;;16.00;99.90;;;;;;4963985;28;20022;-73
2022/07/04 06:27:58;;;;;;;;;;;16.10;99.90;;;;;;4969395;28;19953;-73
2022/07/04 06:30:23;;;;;;;;;;;16.20;99.90;;;;;;4976356;28;19925;-73
2022/07/04 06:32:51;;;;;;;;;;;16.30;99.90;;;;;;4971445;28;19918;-73
2022/07/04 06:38:05;;;;;;;;;;;16.50;99.90;;;;;;4966815;28;19961;-73
2022/07/04 06:40:31;;;;;;;;;;;16.60;99.90;;;;;;4967243;28;20403;-73
2022/07/04 06:42:56;;;;;;;;;;;16.70;99.90;;;;;;4968628;28;20016;-73
2022/07/04 06:45:22;;;;;;;;;;;16.80;99.90;;;;;;4968789;28;19976;-73
2022/07/04 06:47:47;;;;;;;;;;;16.90;99.90;;;;;;4967174;28;19926;-73
2022/07/04 06:50:13;;;;;;;;;;;16.90;99.90;;;;;;4968525;28;19925;-73
2022/07/04 06:52:39;;;;;;;;;;;17.00;99.90;;;;;;4966665;28;19926;-73
2022/07/04 06:55:06;;;;;;;;;;;17.10;99.90;;;;;;4965166;28;20349;-74
2022/07/04 06:57:31;;;;;;;;;;;17.20;99.90;;;;;;4966798;28;20945;-79
2022/07/04 06:59:57;;;;;;;;;;;17.20;99.90;;;;;;4968640;28;19934;-79
2022/07/04 07:02:23;;;;;;;;;;;17.30;99.90;;;;;;4972482;28;20401;-78
2022/07/04 07:04:48;;;;;;;;;;;17.40;99.90;;;;;;4969121;28;20345;-78
2022/07/04 07:07:14;;;;;;;;;;;17.40;99.90;;;;;;4970476;28;19964;-78
2022/07/04 07:09:40;;;;;;;;;;;17.50;99.90;;;;;;4969976;28;19933;-78
2022/07/04 07:12:05;;;;;;;;;;;17.60;99.90;;;;;;4969613;28;19925;-78
2022/07/04 07:14:31;;;;;;;;;;;17.60;99.90;;;;;;4968219;28;19930;-78
2022/07/04 07:16:56;;;;;;;;;;;17.80;99.90;;;;;;4966336;28;19926;-78
2022/07/04 07:19:22;;;;;;;;;;;17.80;99.90;;;;;;4948985;28;19918;-78
2022/07/04 07:21:47;;;;;;;;;;;17.80;99.90;;;;;;4968169;28;20668;-81
2022/07/04 07:24:13;;;;;;;;;;;17.80;99.90;;;;;;4972039;28;19929;-77
2022/07/04 07:26:38;;;;;;;;;;;17.80;99.90;;;;;;4971339;28;19922;-77
2022/07/04 07:29:05;;;;;;;;;;;17.80;99.90;;;;;;4968287;28;19918;-77
2022/07/04 07:31:31;;;;;;;;;;;17.80;99.90;;;;;;4951197;28;19917;-77
2022/07/04 07:33:57;;;;;;;;;;;17.80;99.90;;;;;;4967853;28;20860;-77
2022/07/04 07:36:22;;;;;;;;;;;17.90;99.90;;;;;;4968621;28;19925;-77
2022/07/04 07:38:48;;;;;;;;;;;18.10;99.90;;;;;;4968996;28;19918;-77
2022/07/04 07:41:14;;;;;;;;;;;18.30;99.90;;;;;;4967043;28;20062;-77
2022/07/04 07:43:39;;;;;;;;;;;18.50;99.90;;;;;;4964245;28;20483;-77
2022/07/04 07:46:06;;;;;;;;;;;18.70;99.90;;;;;;4967102;28;20435;-79
2022/07/04 07:48:31;;;;;;;;;;;18.90;99.90;;;;;;4969739;28;19917;-74
2022/07/04 07:50:57;;;;;;;;;;;19.00;99.90;;;;;;4966480;28;19926;-77
2022/07/04 07:53:22;;;;;;;;;;;19.20;99.90;;;;;;4966263;28;20292;-77
2022/07/04 07:55:48;;;;;;;;;;;19.30;99.90;;;;;;4969325;28;20328;-77
2022/07/04 07:58:15;;;;;;;;;;;19.40;99.90;;;;;;4967522;28;20295;-77
2022/07/04 08:00:40;;;;;;;;;;;19.50;99.90;;;;;;4971375;28;19918;-77
2022/07/04 08:06:22;;;;;;;;;;;19.70;99.90;;;;;;4965713;28;19949;-77
2022/07/04 08:09:08;;;;;;;;;;;19.70;99.90;;;;;;4971425;28;19953;-78
2022/07/04 08:11:36;;;;;;;;;;;19.70;99.90;;;;;;4949878;28;19918;-78
2022/07/04 08:14:01;;;;;;;;;;;19.70;99.90;;;;;;4966333;28;19945;-78
2022/07/04 08:16:27;;;;;;;;;;;19.50;99.90;;;;;;4970574;28;19976;-79
2022/07/04 08:18:53;;;;;;;;;;;19.50;99.90;;;;;;4952183;28;19922;-78
2022/07/04 08:21:18;;;;;;;;;;;19.50;99.90;;;;;;4970184;28;20316;-78
2022/07/04 08:23:44;;;;;;;;;;;19.50;99.90;;;;;;4971690;28;19969;-78
2022/07/04 08:26:10;;;;;;;;;;;19.40;99.90;;;;;;4969532;28;19981;-78
2022/07/04 08:28:35;;;;;;;;;;;19.40;99.90;;;;;;4972499;28;19918;-77
2022/07/04 08:31:01;;;;;;;;;;;19.30;99.90;;;;;;4973192;28;20008;-78
2022/07/04 08:33:26;;;;;;;;;;;19.30;99.90;;;;;;4968854;28;19922;-77
2022/07/04 08:36:11;;;;;;;;;;;19.50;99.90;;;;;;4974587;28;19917;-78
2022/07/04 08:39:33;;;;;;;;;;;19.70;99.90;;;;;;4955421;28;20383;-77
2022/07/04 08:42:02;;;;;;;;;;;19.90;99.90;;;;;;4969456;28;19957;-77
2022/07/04 08:44:28;;;;;;;;;;;20.10;99.90;;;;;;4969038;28;19930;-77
2022/07/04 08:46:54;;;;;;;;;;;20.10;99.90;;;;;;4964897;28;19972;-77
2022/07/04 08:49:24;;;;;;;;;;;20.20;99.90;;;;;;4969215;28;19922;-77
2022/07/04 08:58:29;;;;;;;;;;;20.10;99.90;;;;;;4968259;28;19922;-77
2022/07/04 09:01:11;;;;;;;;;;;20.10;99.90;;;;;;4966596;28;19933;-77
2022/07/04 09:03:37;;;;;;;;;;;20.30;99.90;;;;;;4969402;28;19930;-77
2022/07/04 09:06:02;;;;;;;;;;;20.40;99.90;;;;;;4976419;28;19922;-77
2022/07/04 09:08:28;;;;;;;;;;;20.60;99.90;;;;;;4977595;28;20033;-77
2022/07/04 09:10:54;;;;;;;;;;;20.60;99.90;;;;;;4980012;28;19957;-77
2022/07/04 09:13:20;;;;;;;;;;;20.60;99.90;;;;;;4975503;28;19922;-77
2022/07/04 09:15:47;;;;;;;;;;;20.70;99.90;;;;;;4973163;28;19933;-77
2022/07/04 09:18:26;;;;;;;;;;;20.90;99.90;;;;;;4957258;28;19929;-78
2022/07/04 09:20:53;;;;;;;;;;;20.90;99.90;;;;;;4971195;28;20376;-78
2022/07/04 09:23:23;;;;;;;;;;;21.00;99.90;;;;;;4976718;28;19922;-79
2022/07/04 09:26:05;;;;;;;;;;;20.80;99.90;;;;;;4971680;28;19918;-73
2022/07/04 09:28:30;;;;;;;;;;;20.60;99.90;;;;;;4966570;28;19926;-74
2022/07/04 09:30:56;;;;;;;;;;;20.30;99.90;;;;;;4971113;28;19921;-74
2022/07/04 09:33:23;;;;;;;;;;;19.90;99.90;;;;;;4969177;28;19918;-73
2022/07/04 09:35:48;;;;;;;;;;;19.70;99.90;;;;;;4977860;28;20006;-73
2022/07/04 09:38:21;;;;;;;;;;;19.60;99.90;;;;;;4971526;28;19945;-73
2022/07/04 09:43:35;;;;;;;;;;;19.50;99.90;;;;;;4978215;28;19926;-74
2022/07/04 09:46:01;;;;;;;;;;;19.60;99.90;;;;;;4972120;28;19933;-73
2022/07/04 09:48:47;;;;;;;;;;;19.80;99.90;;;;;;4968163;28;19925;-73
2022/07/04 09:51:12;;;;;;;;;;;20.20;99.90;;;;;;4968020;28;20377;-74
2022/07/04 09:53:38;;;;;;;;;;;20.70;99.90;;;;;;4966475;28;19944;-73
2022/07/04 09:56:03;;;;;;;;;;;21.10;99.90;;;;;;4968614;28;19922;-74
2022/07/04 09:58:29;;;;;;;;;;;21.30;99.90;;;;;;4966700;28;20004;-75
2022/07/04 10:00:58;;;;;;;;;;;21.40;99.90;;;;;;4968073;28;19961;-73
2022/07/04 10:03:28;;;;;;;;;;;21.40;99.90;;;;;;4968817;28;20307;-73
2022/07/04 10:06:08;;;;;;;;;;;21.30;99.90;;;;;;4968170;28;20056;-73
2022/07/04 10:08:34;;;;;;;;;;;21.70;99.90;;;;;;4954234;28;19926;-73
2022/07/04 10:11:00;;;;;;;;;;;22.00;99.90;;;;;;4969533;28;20060;-74
2022/07/04 10:13:26;;;;;;;;;;;21.90;99.90;;;;;;4966930;28;19925;-73
2022/07/04 10:15:52;;;;;;;;;;;21.70;99.90;;;;;;4968402;28;19918;-73
2022/07/04 10:18:18;;;;;;;;;;;21.50;99.90;;;;;;4962017;28;20827;-73
2022/07/04 10:20:44;;;;;;;;;;;21.70;99.90;;;;;;4969016;28;19927;-74
2022/07/04 10:23:10;;;;;;;;;;;22.00;99.90;;;;;;4957972;28;19926;-74
2022/07/04 10:25:36;;;;;;;;;;;22.00;99.90;;;;;;4949170;28;19933;-74
2022/07/04 10:28:02;;;;;;;;;;;21.90;99.90;;;;;;4970732;28;19965;-74
2022/07/04 10:30:28;;;;;;;;;;;21.60;99.90;;;;;;4970359;28;19933;-74
2022/07/04 10:32:54;;;;;;;;;;;21.50;99.90;;;;;;4970373;28;19918;-81
2022/07/04 10:35:39;;;;;;;;;;;21.60;99.90;;;;;;4957879;28;20372;-81
2022/07/04 10:38:07;;;;;;;;;;;21.90;99.90;;;;;;4958339;28;19918;-81
2022/07/04 10:40:39;;;;;;;;;;;21.90;99.90;;;;;;4950849;28;19918;-73
2022/07/04 10:43:24;;;;;;;;;;;21.90;99.90;;;;;;4970920;28;20425;-80
2022/07/04 10:45:51;;;;;;;;;;;22.10;99.90;;;;;;4973539;28;19918;-80
2022/07/04 10:48:21;;;;;;;;;;;22.40;99.90;;;;;;4976821;28;19922;-80
2022/07/04 10:50:58;;;;;;;;;;;22.70;99.90;;;;;;4960664;28;19922;-80
2022/07/04 10:53:24;;;;;;;;;;;23.00;99.90;;;;;;4974958;28;19918;-80
2022/07/04 10:55:49;;;;;;;;;;;23.10;99.90;;;;;;4960784;28;19918;-80
2022/07/04 10:58:34;;;;;;;;;;;23.00;97.40;;;;;;4958692;28;19929;-79
2022/07/04 11:01:15;;;;;;;;;;;23.10;99.40;;;;;;4970349;28;19918;-80
2022/07/04 11:03:49;;;;;;;;;;;23.00;97.90;;;;;;4956436;28;20270;-80
2022/07/04 11:06:33;;;;;;;;;;;23.20;95.50;;;;;;4972772;28;20013;-80
2022/07/04 11:09:21;;;;;;;;;;;23.20;97.00;;;;;;4956485;29;19944;-80
2022/07/04 11:11:57;;;;;;;;;;;23.30;99.90;;;;;;4951259;28;19922;-80
2022/07/04 11:14:36;;;;;;;;;;;23.40;99.90;;;;;;4970668;28;19918;-80
2022/07/04 11:17:06;;;;;;;;;;;23.30;99.90;;;;;;4967941;28;19973;-80
2022/07/04 11:19:31;;;;;;;;;;;23.10;99.90;;;;;;4970438;28;19924;-80
2022/07/04 11:21:57;;;;;;;;;;;23.00;99.90;;;;;;4954984;28;19918;-80
2022/07/04 11:24:23;;;;;;;;;;;22.80;99.90;;;;;;4971725;28;19922;-80
2022/07/04 11:26:49;;;;;;;;;;;22.70;99.90;;;;;;4972697;28;19922;-80
2022/07/04 11:29:15;;;;;;;;;;;22.60;99.90;;;;;;4972469;28;19918;-80
2022/07/04 11:31:48;;;;;;;;;;;22.70;99.90;;;;;;4954946;28;19945;-80
2022/07/04 11:34:14;;;;;;;;;;;22.90;99.90;;;;;;4969578;28;19918;-80
2022/07/04 11:36:40;;;;;;;;;;;22.90;99.90;;;;;;4951311;28;19918;-81
2022/07/04 11:39:07;;;;;;;;;;;23.20;99.90;;;;;;4937152;28;19929;-80
2022/07/04 11:47:12;;;;;;;;;;;23.30;93.50;;;;;;4969558;28;19997;-81
2022/07/04 11:49:42;;;;;;;;;;;23.10;92.10;;;;;;4969307;28;19925;-80
2022/07/04 11:52:07;;;;;;;;;;;23.20;90.40;;;;;;4954093;28;19919;-80
2022/07/04 11:54:33;;;;;;;;;;;23.20;91.10;;;;;;4969366;28;19918;-80
2022/07/04 11:57:09;;;;;;;;;;;23.30;91.20;;;;;;4968758;28;20008;-82
2022/07/04 11:59:34;;;;;;;;;;;23.30;90.90;;;;;;4957988;28;19922;-80
2022/07/04 12:02:09;;;;;;;;;;;23.00;88.20;;;;;;4972359;28;19925;-80
2022/07/04 12:04:34;;;;;;;;;;;23.30;94.10;;;;;;4968104;28;19922;-80
2022/07/04 12:07:07;;;;;;;;;;;23.40;93.30;;;;;;4968168;28;19918;-79
2022/07/04 12:09:33;;;;;;;;;;;23.60;93.00;;;;;;4965808;28;19918;-81
2022/07/04 12:11:59;;;;;;;;;;;23.60;84.00;;;;;;4966262;28;19925;-81
2022/07/04 12:14:26;;;;;;;;;;;23.70;91.20;;;;;;4953011;28;19918;-81
2022/07/04 12:17:12;;;;;;;;;;;23.90;88.30;;;;;;4966229;28;19929;-80
2022/07/04 12:19:38;;;;;;;;;;;23.90;81.20;;;;;;4949874;28;19953;-81
2022/07/04 12:22:03;;;;;;;;;;;23.90;84.60;;;;;;4962398;28;19964;-77
2022/07/04 12:24:39;;;;;;;;;;;23.70;85.50;;;;;;4964192;28;19922;-77
2022/07/04 12:27:04;;;;;;;;;;;23.80;86.10;;;;;;4966373;28;19918;-79
2022/07/04 12:29:30;;;;;;;;;;;23.90;84.80;;;;;;4969533;28;19918;-78
2022/07/04 12:31:55;;;;;;;;;;;23.90;82.50;;;;;;4970672;28;20009;-79
2022/07/04 12:34:22;;;;;;;;;;;24.00;84.90;;;;;;4981173;28;19926;-78
2022/07/04 12:36:52;;;;;;;;;;;23.80;81.20;;;;;;4969578;28;19917;-78
2022/07/04 12:39:27;;;;;;;;;;;23.50;82.10;;;;;;4959217;28;19970;-78
2022/07/04 12:42:03;;;;;;;;;;;23.70;84.30;;;;;;4970785;28;19921;-78
2022/07/04 12:44:28;;;;;;;;;;;23.80;79.90;;;;;;4972455;28;19922;-78
2022/07/04 12:46:58;;;;;;;;;;;23.80;81.80;;;;;;4968333;28;20077;-78
2022/07/04 12:49:23;;;;;;;;;;;23.90;86.90;;;;;;4977666;28;19918;-78
2022/07/04 12:51:49;;;;;;;;;;;23.90;81.80;;;;;;4974493;28;19933;-77
2022/07/04 12:54:15;;;;;;;;;;;24.00;75.90;;;;;;4964102;28;19922;-74
2022/07/04 12:56:41;;;;;;;;;;;23.50;75.30;;;;;;4964723;28;19918;-73
2022/07/04 12:59:11;;;;;;;;;;;23.60;77.20;;;;;;4960270;28;19965;-73
2022/07/04 13:01:38;;;;;;;;;;;23.60;70.80;;;;;;4964101;28;19934;-73
2022/07/04 13:04:03;;;;;;;;;;;23.70;71.60;;;;;;4968365;28;19922;-74
2022/07/04 13:06:29;;;;;;;;;;;23.60;66.40;;;;;;4965148;28;19925;-74
2022/07/04 13:08:56;;;;;;;;;;;23.50;68.90;;;;;;4966277;28;19922;-74
2022/07/04 13:14:06;;;;;;;;;;;23.40;67.50;;;;;;4958785;28;19928;-74
2022/07/04 13:16:31;;;;;;;;;;;23.30;68.80;;;;;;4945618;28;20292;-73
2022/07/04 13:18:58;;;;;;;;;;;23.40;72.40;;;;;;4963735;28;20537;-73
2022/07/04 13:21:23;;;;;;;;;;;23.70;73.20;;;;;;4963673;28;20001;-73
2022/07/04 13:23:49;;;;;;;;;;;23.90;71.20;;;;;;4964094;28;19926;-73
2022/07/04 13:26:15;;;;;;;;;;;24.20;70.30;;;;;;4959695;28;20700;-73
2022/07/04 13:28:41;;;;;;;;;;;24.30;68.90;;;;;;4964166;28;20009;-75
2022/07/04 13:31:06;;;;;;;;;;;24.40;71.90;;;;;;4960171;28;20112;-74
2022/07/04 13:33:32;;;;;;;;;;;24.60;69.60;;;;;;4963798;28;20440;-74
2022/07/04 13:35:58;;;;;;;;;;;24.60;62.20;;;;;;4962061;28;19949;-74
2022/07/04 13:38:24;;;;;;;;;;;24.40;64.70;;;;;;4959057;28;20567;-73
2022/07/04 13:40:50;;;;;;;;;;;24.60;66.40;;;;;;4963288;28;20399;-73
2022/07/04 13:43:15;;;;;;;;;;;24.70;64.20;;;;;;4962377;28;20412;-73
2022/07/04 13:45:43;;;;;;;;;;;25.00;67.30;;;;;;4963652;28;20422;-73
2022/07/04 13:48:08;;;;;;;;;;;25.10;64.00;;;;;;4965046;28;19926;-74
2022/07/04 13:50:37;;;;;;;;;;;25.20;65.00;;;;;;4963264;28;20311;-73
2022/07/04 13:53:03;;;;;;;;;;;25.30;60.30;;;;;;4946319;28;19918;-73
2022/07/04 13:55:29;;;;;;;;;;;25.30;61.00;;;;;;4968172;28;19918;-77
2022/07/04 13:57:54;;;;;;;;;;;25.10;59.10;;;;;;4971502;28;19918;-77
2022/07/04 14:00:20;;;;;;;;;;;25.10;58.30;;;;;;4958163;28;19965;-77
2022/07/04 14:02:45;;;;;;;;;;;25.00;60.10;;;;;;4970900;28;19973;-73
2022/07/04 14:05:11;;;;;;;;;;;24.80;59.40;;;;;;4969097;28;19922;-73
2022/07/04 14:07:37;;;;;;;;;;;24.30;59.40;;;;;;4963187;28;19933;-73
2022/07/04 14:10:03;;;;;;;;;;;24.30;63.70;;;;;;4965667;28;19917;-73
2022/07/04 14:12:28;;;;;;;;;;;24.60;63.00;;;;;;4963846;28;19965;-74
2022/07/04 14:14:54;;;;;;;;;;;24.90;62.10;;;;;;4961327;28;20321;-74
2022/07/04 14:17:21;;;;;;;;;;;24.90;61.00;;;;;;4956320;28;19918;-74
2022/07/04 14:19:46;;;;;;;;;;;25.00;63.60;;;;;;4966261;28;19977;-73
2022/07/04 14:22:12;;;;;;;;;;;25.20;60.20;;;;;;4965638;28;21606;-74
2022/07/04 14:24:37;;;;;;;;;;;24.90;58.20;;;;;;4964058;28;19968;-74
2022/07/04 14:27:03;;;;;;;;;;;25.00;60.60;;;;;;4968727;28;19949;-74
2022/07/04 14:29:29;;;;;;;;;;;25.10;58.80;;;;;;4966804;28;19918;-74
2022/07/04 14:31:54;;;;;;;;;;;25.30;57.90;;;;;;4965704;28;19929;-73
2022/07/04 14:34:20;;;;;;;;;;;25.40;58.70;;;;;;4961881;28;20380;-74
2022/07/04 14:36:46;;;;;;;;;;;25.50;54.90;;;;;;4964264;28;19922;-73
2022/07/04 14:39:11;;;;;;;;;;;25.40;57.00;;;;;;4966584;28;20006;-74
2022/07/04 14:41:37;;;;;;;;;;;25.20;56.30;;;;;;4962529;28;19918;-74
2022/07/04 14:44:02;;;;;;;;;;;25.30;54.40;;;;;;4965537;28;20015;-73
2022/07/04 14:46:28;;;;;;;;;;;24.90;54.60;;;;;;4964359;28;19925;-73